Terminal Aerodrome Forecast
Issued by NWS Chicago, IL

Home | Current Version | Previous Version | Text Only | Print | Product List | Glossary Off
Versions: 1 2 3 4 5 6 7 8 9 10 11 12 13 14 15 16 17 18 19 20 21 22 23 24 25 26 27

940
FTUS43 KLOT 050908 AAA
TAFRFD
TAF AMD
KRFD 050908Z 0509/0606 24007G15KT 4SM BR OVC007
     FM051000 24005KT 2SM BR OVC005
     FM051200 21005KT 1/4SM FZFG VV002
     FM051600 17006KT 3/4SM BR OVC004
     FM051900 18010G18KT 4SM BR OVC006
     FM052200 17010G18KT P6SM OVC008=

USA.gov is the U.S. government's official web portal to all federal, state and local government web resources and services.